createdAt,value
2023-02-11T00:00:16.514Z,2.15
2023-02-11T00:02:46.783Z,2.95
2023-02-11T00:05:15.140Z,2.90
2023-02-11T00:07:42.500Z,2.97
2023-02-11T00:10:12.413Z,2.90
2023-02-11T00:12:39.587Z,3.42
2023-02-11T00:15:07.145Z,3.10
2023-02-11T00:17:34.603Z,2.40
2023-02-11T00:20:01.764Z,2.70
2023-02-11T00:22:28.914Z,2.75
2023-02-11T00:24:57.099Z,3.13
2023-02-11T00:27:24.228Z,2.50
2023-02-11T00:29:51.609Z,3.00
2023-02-11T00:32:18.738Z,4.15
2023-02-11T00:34:45.864Z,3.25
2023-02-11T00:37:13.632Z,3.42
2023-02-11T00:39:40.792Z,3.97
2023-02-11T00:42:08.032Z,2.83
2023-02-11T00:44:35.208Z,2.70
2023-02-11T00:47:02.377Z,2.80
2023-02-11T00:49:29.560Z,3.53
2023-02-11T00:51:56.721Z,2.78
2023-02-11T00:54:23.963Z,3.10
2023-02-11T00:56:51.067Z,3.17
2023-02-11T00:59:18.153Z,3.50
2023-02-11T01:01:45.350Z,2.97
2023-02-11T01:04:12.572Z,2.90
2023-02-11T01:06:39.790Z,3.53
2023-02-11T01:09:06.861Z,3.40
2023-02-11T01:11:34.064Z,3.15
2023-02-11T01:14:01.202Z,3.45
2023-02-11T01:16:28.324Z,3.45
2023-02-11T01:18:55.577Z,3.25
2023-02-11T01:21:22.732Z,3.10
2023-02-11T01:23:49.884Z,2.97
2023-02-11T01:26:17.093Z,2.97
2023-02-11T01:28:44.246Z,3.72
2023-02-11T01:31:11.817Z,3.72
2023-02-11T01:33:39.066Z,2.67
2023-02-11T01:36:06.582Z,3.13
2023-02-11T01:38:33.773Z,2.83
2023-02-11T01:41:02.451Z,3.83
2023-02-11T01:43:32.076Z,3.42
2023-02-11T01:46:37.130Z,3.28
2023-02-11T01:49:04.457Z,3.95
2023-02-11T01:51:34.825Z,2.97
2023-02-11T01:54:21.789Z,3.70
2023-02-11T01:57:09.601Z,3.00
2023-02-11T01:59:49.245Z,4.22
2023-02-11T02:02:18.790Z,3.60
2023-02-11T02:04:58.274Z,3.42
2023-02-11T02:07:37.781Z,4.05
2023-02-11T02:10:08.414Z,3.60
2023-02-11T02:12:35.575Z,3.65
2023-02-11T02:15:21.690Z,3.15
2023-02-11T02:17:56.831Z,3.80
2023-02-11T02:20:59.500Z,3.65
2023-02-11T02:23:31.354Z,3.67
2023-02-11T02:26:01.609Z,3.40
2023-02-11T02:28:35.058Z,3.80
2023-02-11T02:31:11.567Z,4.40
2023-02-11T02:33:48.030Z,3.55
2023-02-11T02:36:17.957Z,3.85
2023-02-11T02:38:51.753Z,3.70
2023-02-11T02:41:20.820Z,4.05
2023-02-11T02:46:19.723Z,4.20
2023-02-11T02:48:49.455Z,3.78
2023-02-11T02:51:16.614Z,4.75
2023-02-11T02:54:06.837Z,3.92
2023-02-11T02:56:52.719Z,4.18
2023-02-11T02:59:49.227Z,3.97
2023-02-11T03:02:23.525Z,3.72
2023-02-11T03:05:09.554Z,4.53
2023-02-11T03:07:45.847Z,4.18
2023-02-11T03:10:15.816Z,5.80
2023-02-11T03:12:44.742Z,4.72
2023-02-11T03:15:13.049Z,4.55
2023-02-11T03:17:41.861Z,4.38
2023-02-11T03:20:11.419Z,4.70
2023-02-11T03:22:42.202Z,5.03
2023-02-11T03:25:10.386Z,4.57
2023-02-11T03:27:44.009Z,4.90
2023-02-11T03:30:19.570Z,5.82
2023-02-11T03:32:50.647Z,4.70
2023-02-11T03:35:29.770Z,5.63
2023-02-11T03:38:00.497Z,5.32
2023-02-11T03:40:33.133Z,5.78
2023-02-11T03:43:01.602Z,5.55
2023-02-11T03:45:29.194Z,5.78
2023-02-11T03:48:01.449Z,5.75
2023-02-11T03:50:30.855Z,5.55
2023-02-11T03:52:58.994Z,5.70
2023-02-11T03:55:26.641Z,6.15
2023-02-11T03:57:53.935Z,5.63
2023-02-11T04:00:21.129Z,7.32
2023-02-11T04:02:48.335Z,5.93
2023-02-11T04:05:16.726Z,6.10
2023-02-11T04:07:44.286Z,6.65
2023-02-11T04:10:12.888Z,6.30
2023-02-11T04:12:40.159Z,6.00
2023-02-11T04:15:07.549Z,5.90
2023-02-11T04:17:34.661Z,6.82
2023-02-11T04:20:02.166Z,6.38
2023-02-11T04:22:29.311Z,6.40
2023-02-11T04:24:56.487Z,6.75
2023-02-11T04:27:24.140Z,7.03
2023-02-11T04:29:51.219Z,6.57
2023-02-11T04:32:18.611Z,6.78
2023-02-11T04:34:45.920Z,7.03
2023-02-11T04:37:13.237Z,7.32
2023-02-11T04:39:40.380Z,7.15
2023-02-11T04:42:07.657Z,7.60
2023-02-11T04:44:34.969Z,7.68
2023-02-11T04:47:02.093Z,7.85
2023-02-11T04:49:29.469Z,7.68
2023-02-11T04:51:56.606Z,7.20
2023-02-11T04:54:23.752Z,7.90
2023-02-11T04:56:51.250Z,7.93
2023-02-11T04:59:18.374Z,7.32
2023-02-11T05:01:46.145Z,7.60
2023-02-11T05:04:13.343Z,8.13
2023-02-11T05:06:40.659Z,8.65
2023-02-11T05:09:08.274Z,8.73
2023-02-11T05:11:36.679Z,8.35
2023-02-11T05:14:03.822Z,8.65
2023-02-11T05:16:32.869Z,7.70
2023-02-11T05:21:27.231Z,7.05
2023-02-11T05:23:54.335Z,8.00
2023-02-11T05:26:21.487Z,8.38
2023-02-11T05:28:48.747Z,9.52
2023-02-11T05:31:16.909Z,8.68
2023-02-11T05:33:44.318Z,8.25
2023-02-11T05:36:13.258Z,9.30
2023-02-11T05:38:40.700Z,9.02
2023-02-11T05:41:08.091Z,8.40
2023-02-11T05:43:35.606Z,9.00
2023-02-11T05:46:03.420Z,8.80
2023-02-11T05:48:30.685Z,9.35
2023-02-11T05:50:57.905Z,9.02
2023-02-11T05:53:25.073Z,9.45
2023-02-11T05:55:52.675Z,9.45
2023-02-11T05:58:20.240Z,8.57
2023-02-11T06:00:47.372Z,9.98
2023-02-11T06:03:14.735Z,8.57
2023-02-11T06:05:43.530Z,9.13
2023-02-11T06:08:10.639Z,9.25
2023-02-11T06:10:37.872Z,8.65
2023-02-11T06:13:05.279Z,11.02
2023-02-11T06:15:32.602Z,10.57
2023-02-11T06:17:59.716Z,10.23
2023-02-11T06:20:26.850Z,9.32
2023-02-11T06:22:54.146Z,10.02
2023-02-11T06:25:22.554Z,9.90
2023-02-11T06:27:49.764Z,10.05
2023-02-11T06:30:16.963Z,10.25
2023-02-11T06:32:45.681Z,10.07
2023-02-11T06:37:45.287Z,10.20
2023-02-11T06:40:12.674Z,10.57
2023-02-11T06:42:40.089Z,9.75
2023-02-11T06:45:09.426Z,10.20
2023-02-11T06:47:36.589Z,10.50
2023-02-11T06:50:03.909Z,11.30
2023-02-11T06:52:31.062Z,10.23
2023-02-11T06:54:58.634Z,11.65
2023-02-11T06:57:25.778Z,11.40
2023-02-11T06:59:54.055Z,11.65
2023-02-11T07:03:03.303Z,11.70
2023-02-11T07:05:30.537Z,11.13
2023-02-11T07:07:57.793Z,10.88
2023-02-11T07:10:24.969Z,11.35
2023-02-11T07:12:52.371Z,10.68
2023-02-11T07:15:19.542Z,11.40
2023-02-11T07:17:47.452Z,11.93
2023-02-11T07:20:15.004Z,11.02
2023-02-11T07:22:42.161Z,11.40
2023-02-11T07:25:09.344Z,12.85
2023-02-11T07:27:36.480Z,10.45
2023-02-11T07:30:06.880Z,11.15
2023-02-11T07:32:34.385Z,12.40
2023-02-11T07:35:01.571Z,12.43
2023-02-11T07:37:28.841Z,11.55
2023-02-11T07:39:55.956Z,12.00
2023-02-11T07:42:23.307Z,11.07
2023-02-11T07:44:50.688Z,12.10
2023-02-11T07:47:18.182Z,11.13
2023-02-11T07:49:46.566Z,11.50
2023-02-11T07:52:13.739Z,11.57
2023-02-11T07:54:42.110Z,11.82
2023-02-11T07:57:09.296Z,11.68
2023-02-11T07:59:36.732Z,12.57
2023-02-11T08:02:04.042Z,10.90
2023-02-11T08:04:31.285Z,10.90
2023-02-11T08:06:59.310Z,11.40
2023-02-11T08:09:26.605Z,11.48
2023-02-11T08:11:53.872Z,11.77
2023-02-11T08:14:21.216Z,11.80
2023-02-11T08:16:48.371Z,11.85
2023-02-11T08:19:16.211Z,11.15
2023-02-11T08:21:43.541Z,11.05
2023-02-11T08:24:10.913Z,11.98
2023-02-11T08:26:38.594Z,11.48
2023-02-11T08:29:13.133Z,11.85
2023-02-11T08:31:42.123Z,12.30
2023-02-11T08:34:11.461Z,12.73
2023-02-11T08:36:39.364Z,12.10
2023-02-11T08:39:18.700Z,11.50
2023-02-11T08:41:48.927Z,11.48
2023-02-11T08:44:16.349Z,12.18
2023-02-11T08:47:04.599Z,12.40
2023-02-11T08:50:09.306Z,12.52
2023-02-11T08:52:38.877Z,12.40
2023-02-11T08:55:06.309Z,13.15
2023-02-11T08:57:33.486Z,12.40
2023-02-11T09:00:00.596Z,11.50
2023-02-11T09:02:27.748Z,11.85
2023-02-11T09:04:55.124Z,12.77
2023-02-11T09:07:22.300Z,13.35
2023-02-11T09:09:49.469Z,14.02
2023-02-11T09:12:16.694Z,13.35
2023-02-11T09:14:43.805Z,13.20
2023-02-11T09:17:11.191Z,12.13
2023-02-11T09:19:38.607Z,13.75
2023-02-11T09:22:05.838Z,11.95
2023-02-11T09:24:33.039Z,12.15
2023-02-11T09:27:00.184Z,12.70
2023-02-11T09:29:27.455Z,12.02
2023-02-11T09:31:54.812Z,12.93
2023-02-11T09:34:22.089Z,13.27
2023-02-11T09:36:49.307Z,12.60
2023-02-11T09:39:18.284Z,13.15
2023-02-11T09:44:20.943Z,12.43
2023-02-11T09:46:50.855Z,13.27
2023-02-11T09:49:20.231Z,13.85
2023-02-11T09:51:49.360Z,13.60
2023-02-11T09:54:37.266Z,12.48
2023-02-11T09:57:06.191Z,13.13
2023-02-11T10:02:05.340Z,12.52
2023-02-11T10:04:51.417Z,13.05
2023-02-11T10:07:37.629Z,13.63
2023-02-11T10:10:19.814Z,12.18
2023-02-11T10:13:01.742Z,13.10
2023-02-11T10:15:43.610Z,12.35
2023-02-11T10:18:13.776Z,12.23
2023-02-11T10:21:00.380Z,13.43
2023-02-11T10:23:30.192Z,13.60
2023-02-11T10:25:58.970Z,12.68
2023-02-11T10:28:34.346Z,11.95
2023-02-11T10:31:03.724Z,14.35
2023-02-11T10:33:32.808Z,13.30
2023-02-11T10:36:00.133Z,12.45
2023-02-11T10:38:28.066Z,12.70
2023-02-11T10:40:55.212Z,11.68
2023-02-11T10:43:24.941Z,11.68
2023-02-11T10:45:53.330Z,12.10
2023-02-11T10:48:40.749Z,12.82
2023-02-11T10:51:14.681Z,12.27
2023-02-11T10:53:42.132Z,11.23
2023-02-11T10:56:11.793Z,11.82
2023-02-11T10:58:46.422Z,11.80
2023-02-11T11:01:24.477Z,11.95
2023-02-11T11:03:52.820Z,11.85
2023-02-11T11:06:30.128Z,11.20
2023-02-11T11:08:57.468Z,11.57
2023-02-11T11:11:25.764Z,10.75
2023-02-11T11:13:52.868Z,12.30
2023-02-11T11:16:20.068Z,10.93
2023-02-11T11:18:48.764Z,10.70
2023-02-11T11:21:21.271Z,10.20
2023-02-11T11:23:50.338Z,11.15
2023-02-11T11:26:18.146Z,10.18
2023-02-11T11:29:08.355Z,10.95
2023-02-11T11:31:37.096Z,9.93
2023-02-11T11:36:40.978Z,8.90
2023-02-11T11:39:31.358Z,9.27
2023-02-11T11:42:00.154Z,9.00
2023-02-11T11:47:15.824Z,9.18
2023-02-11T11:49:57.135Z,9.07
2023-02-11T11:52:43.195Z,8.82
2023-02-11T11:55:14.267Z,8.63
2023-02-11T11:57:41.608Z,8.18
2023-02-11T12:00:20.074Z,8.82
2023-02-11T12:03:01.484Z,9.02
2023-02-11T12:05:35.714Z,8.80
2023-02-11T12:08:23.022Z,8.23
2023-02-11T12:10:53.485Z,8.63
2023-02-11T12:13:30.160Z,9.15
2023-02-11T12:16:10.633Z,9.50
2023-02-11T12:18:53.294Z,10.65
2023-02-11T12:21:23.385Z,9.05
2023-02-11T12:23:50.433Z,10.13
2023-02-11T12:26:17.549Z,10.57
2023-02-11T12:29:01.339Z,10.52
2023-02-11T12:31:31.321Z,9.48
2023-02-11T12:34:17.357Z,10.50
2023-02-11T12:37:03.115Z,9.70
2023-02-11T12:39:49.052Z,9.18
2023-02-11T12:42:53.101Z,9.82
2023-02-11T12:45:38.872Z,10.07
2023-02-11T12:48:06.047Z,10.23
2023-02-11T12:50:52.425Z,10.30
2023-02-11T12:53:31.545Z,10.63
2023-02-11T12:56:01.380Z,9.55
2023-02-11T12:58:44.196Z,10.07
2023-02-11T13:01:30.018Z,10.23
2023-02-11T13:04:00.272Z,9.73
2023-02-11T13:06:34.140Z,9.05
2023-02-11T13:09:02.814Z,4.80
2023-02-11T13:11:38.949Z,4.10
2023-02-11T13:14:13.271Z,4.75
2023-02-11T13:16:45.345Z,4.72
2023-02-11T13:19:31.070Z,4.78
2023-02-11T13:22:04.734Z,4.80
2023-02-11T13:24:44.317Z,4.72
2023-02-11T13:27:15.950Z,5.30
2023-02-11T13:30:05.562Z,4.60
2023-02-11T13:32:51.636Z,4.70
2023-02-11T13:35:32.388Z,5.07
2023-02-11T13:38:06.538Z,5.03
2023-02-11T13:40:38.258Z,4.20
2023-02-11T13:43:06.206Z,4.40
2023-02-11T13:45:49.102Z,4.78
2023-02-11T13:48:37.185Z,4.63
2023-02-11T13:51:06.538Z,4.30
2023-02-11T13:53:52.036Z,5.05
2023-02-11T13:56:35.646Z,5.03
2023-02-11T13:59:25.934Z,4.75
2023-02-11T14:02:20.965Z,4.63
2023-02-11T14:05:25.265Z,4.72
2023-02-11T14:08:23.316Z,5.03
2023-02-11T14:10:51.776Z,3.22
2023-02-11T14:13:29.992Z,4.30
2023-02-11T14:16:07.777Z,4.35
2023-02-11T14:18:51.901Z,4.80
2023-02-11T14:21:29.618Z,4.82
2023-02-11T14:24:04.772Z,5.53
2023-02-11T14:26:50.781Z,4.82
2023-02-11T14:29:28.656Z,4.75
2023-02-11T14:32:04.007Z,4.63
2023-02-11T14:34:44.548Z,4.43
2023-02-11T14:37:14.574Z,4.53
2023-02-11T14:39:53.715Z,3.97
2023-02-11T14:42:22.736Z,5.05
2023-02-11T14:44:51.483Z,4.40
2023-02-11T14:47:24.192Z,4.35
2023-02-11T14:49:51.506Z,4.35
2023-02-11T14:52:29.313Z,4.90
2023-02-11T14:55:25.773Z,4.50
2023-02-11T14:58:11.802Z,4.97
2023-02-11T15:00:47.553Z,5.07
2023-02-11T15:03:27.372Z,4.30
2023-02-11T15:05:58.958Z,4.15
2023-02-11T15:08:26.431Z,4.20
2023-02-11T15:10:55.005Z,4.20
2023-02-11T15:13:27.136Z,4.53
2023-02-11T15:15:56.457Z,8.05
2023-02-11T15:18:24.905Z,6.28
2023-02-11T15:20:52.669Z,5.45
2023-02-11T15:23:23.404Z,5.97
2023-02-11T15:25:56.162Z,5.03
2023-02-11T15:28:25.105Z,5.50
2023-02-11T15:30:59.999Z,5.40
2023-02-11T15:33:29.981Z,4.85
2023-02-11T15:35:57.670Z,5.65
2023-02-11T15:38:24.988Z,7.30
2023-02-11T15:41:01.055Z,6.57
2023-02-11T15:43:47.107Z,6.60
2023-02-11T15:46:18.913Z,5.55
2023-02-11T15:48:48.152Z,5.93
2023-02-11T15:51:22.052Z,5.43
2023-02-11T15:53:59.732Z,6.15
2023-02-11T15:56:30.886Z,5.40
2023-02-11T15:59:00.343Z,6.28
2023-02-11T16:01:35.049Z,8.20
2023-02-11T16:04:02.969Z,5.88
2023-02-11T16:06:40.653Z,5.78
2023-02-11T16:09:13.584Z,6.38
2023-02-11T16:11:47.237Z,5.53
2023-02-11T16:14:23.672Z,7.13
2023-02-11T16:16:52.701Z,7.60
2023-02-11T16:19:21.520Z,7.68
2023-02-11T16:21:50.345Z,7.47
2023-02-11T16:24:36.959Z,7.45
2023-02-11T16:27:05.351Z,8.05
2023-02-11T16:29:35.241Z,7.80
2023-02-11T16:32:09.953Z,7.03
2023-02-11T16:34:37.735Z,7.30
2023-02-11T16:37:06.195Z,6.00
2023-02-11T16:39:33.729Z,6.43
2023-02-11T16:42:01.284Z,6.97
2023-02-11T16:44:28.649Z,6.70
2023-02-11T16:46:56.418Z,5.88
2023-02-11T16:49:25.105Z,6.97
2023-02-11T16:51:56.762Z,6.40
2023-02-11T16:54:25.695Z,5.93
2023-02-11T16:59:21.576Z,7.72
2023-02-11T17:01:49.302Z,7.75
2023-02-11T17:04:16.400Z,7.93
2023-02-11T17:06:43.563Z,6.25
2023-02-11T17:09:16.276Z,7.35
2023-02-11T17:11:43.682Z,6.00
2023-02-11T17:14:10.811Z,5.80
2023-02-11T17:16:38.015Z,5.75
2023-02-11T17:19:05.354Z,6.15
2023-02-11T17:21:32.670Z,6.70
2023-02-11T17:24:00.500Z,5.85
2023-02-11T17:26:27.679Z,5.68
2023-02-11T17:28:54.783Z,5.68
2023-02-11T17:34:53.143Z,4.97
2023-02-11T17:37:20.387Z,5.43
2023-02-11T17:39:49.739Z,6.35
2023-02-11T17:42:19.243Z,6.18
2023-02-11T17:44:46.946Z,6.47
2023-02-11T17:47:14.365Z,5.65
2023-02-11T17:49:42.575Z,6.80
2023-02-11T17:52:09.840Z,6.38
2023-02-11T17:54:38.812Z,6.47
2023-02-11T17:57:05.928Z,7.93
2023-02-11T17:59:35.652Z,7.30
2023-02-11T18:02:03.710Z,6.00
2023-02-11T18:04:31.970Z,7.72
2023-02-11T18:06:59.164Z,7.75
2023-02-11T18:09:26.648Z,8.25
2023-02-11T18:11:53.937Z,9.60
2023-02-11T18:14:22.219Z,8.30
2023-02-11T18:16:50.460Z,8.85
2023-02-11T18:19:17.940Z,9.23
2023-02-11T18:21:45.304Z,9.45
2023-02-11T18:24:12.807Z,11.65
2023-02-11T18:26:39.968Z,10.50
2023-02-11T18:29:07.289Z,12.25
2023-02-11T18:31:37.685Z,10.00
2023-02-11T18:34:07.353Z,9.65
2023-02-11T18:36:34.993Z,13.63
2023-02-11T18:39:02.211Z,11.43
2023-02-11T18:41:29.796Z,10.63
2023-02-11T18:44:00.678Z,8.80
2023-02-11T18:46:27.857Z,7.43
2023-02-11T18:48:56.284Z,6.63
2023-02-11T18:51:23.986Z,8.10
2023-02-11T18:53:51.142Z,8.00
2023-02-11T18:56:20.245Z,7.53
2023-02-11T18:58:48.916Z,7.88
2023-02-11T19:01:17.981Z,8.75
2023-02-11T19:03:45.487Z,8.38
2023-02-11T19:06:20.597Z,8.20
2023-02-11T19:11:17.925Z,7.75
2023-02-11T19:13:47.703Z,8.27
2023-02-11T19:16:16.831Z,9.63
2023-02-11T19:18:44.665Z,10.32
2023-02-11T19:21:12.884Z,9.27
2023-02-11T19:23:40.209Z,9.60
2023-02-11T19:26:07.484Z,8.95
2023-02-11T19:28:37.028Z,8.90
2023-02-11T19:31:08.810Z,7.88
2023-02-11T19:33:36.299Z,8.38
2023-02-11T19:36:07.310Z,9.25
2023-02-11T19:38:34.917Z,10.43
2023-02-11T19:41:02.338Z,10.30
2023-02-11T19:43:29.672Z,9.52
2023-02-11T19:45:58.596Z,12.10
2023-02-11T19:50:52.979Z,9.63
2023-02-11T19:53:20.206Z,9.80
2023-02-11T19:55:47.737Z,8.80
2023-02-11T19:58:15.963Z,9.20
2023-02-11T20:00:43.888Z,11.80
2023-02-11T20:03:11.125Z,10.65
2023-02-11T20:05:43.380Z,9.40
2023-02-11T20:08:10.594Z,11.43
2023-02-11T20:10:37.923Z,11.55
2023-02-11T20:13:05.168Z,14.20
2023-02-11T20:15:32.340Z,16.90
2023-02-11T20:17:59.559Z,14.20
2023-02-11T20:20:26.716Z,11.45
2023-02-11T20:22:53.912Z,11.25
2023-02-11T20:25:21.150Z,11.57
2023-02-11T20:27:48.310Z,9.73
2023-02-11T20:30:15.527Z,11.15
2023-02-11T20:32:42.864Z,10.85
2023-02-11T20:35:10.290Z,10.50
2023-02-11T20:37:38.738Z,11.50
2023-02-11T20:40:06.810Z,15.60
2023-02-11T20:42:34.099Z,12.43
2023-02-11T20:45:01.425Z,12.40
2023-02-11T20:47:28.570Z,11.90
2023-02-11T20:49:56.193Z,11.50
2023-02-11T20:52:23.375Z,12.38
2023-02-11T20:54:50.553Z,11.07
2023-02-11T20:57:17.761Z,10.60
2023-02-11T20:59:44.965Z,13.70
2023-02-11T21:02:13.394Z,16.35
2023-02-11T21:04:40.735Z,17.90
2023-02-11T21:07:07.871Z,13.35
2023-02-11T21:09:35.045Z,12.05
2023-02-11T21:12:02.799Z,12.40
2023-02-11T21:14:30.219Z,18.50
2023-02-11T21:16:57.572Z,11.52
2023-02-11T21:19:24.769Z,14.05
2023-02-11T21:21:52.019Z,16.85
2023-02-11T21:24:19.455Z,10.85
2023-02-11T21:26:46.825Z,10.75
2023-02-11T21:29:14.014Z,12.35
2023-02-11T21:31:42.993Z,11.30
2023-02-11T21:34:10.411Z,14.73
2023-02-11T21:36:37.792Z,12.48
2023-02-11T21:39:05.946Z,11.20
2023-02-11T21:41:33.132Z,11.60
2023-02-11T21:44:00.358Z,12.07
2023-02-11T21:46:28.026Z,11.73
2023-02-11T21:48:55.402Z,11.50
2023-02-11T21:51:26.576Z,11.32
2023-02-11T21:53:57.705Z,11.07
2023-02-11T21:56:27.992Z,10.30
2023-02-11T21:58:56.384Z,11.35
2023-02-11T22:01:25.089Z,10.02
2023-02-11T22:03:52.686Z,9.60
2023-02-11T22:06:21.932Z,10.43
2023-02-11T22:08:49.856Z,9.82
2023-02-11T22:11:17.036Z,10.27
2023-02-11T22:13:44.398Z,11.35
2023-02-11T22:16:15.565Z,10.15
2023-02-11T22:18:46.893Z,9.88
2023-02-11T22:21:18.890Z,9.35
2023-02-11T22:23:46.356Z,8.98
2023-02-11T22:26:14.788Z,8.93
2023-02-11T22:28:42.562Z,10.15
2023-02-11T22:31:14.066Z,10.32
2023-02-11T22:33:41.791Z,11.63
2023-02-11T22:36:12.248Z,13.52
2023-02-11T22:41:12.496Z,10.13
2023-02-11T22:43:39.873Z,9.90
2023-02-11T22:46:07.711Z,10.02
2023-02-11T22:48:35.445Z,9.75
2023-02-11T22:51:09.950Z,9.68
2023-02-11T22:53:37.517Z,10.25
2023-02-11T22:56:09.798Z,9.85
2023-02-11T22:58:37.023Z,9.55
2023-02-11T23:01:05.266Z,10.32
2023-02-11T23:03:33.156Z,9.85
2023-02-11T23:06:00.873Z,9.68
2023-02-11T23:08:29.168Z,9.15
2023-02-11T23:10:56.470Z,9.80
2023-02-11T23:13:23.582Z,9.02
2023-02-11T23:15:50.685Z,9.65
2023-02-11T23:18:18.869Z,10.35
2023-02-11T23:20:46.009Z,9.65
2023-02-11T23:23:13.267Z,10.20
2023-02-11T23:25:44.507Z,9.60
2023-02-11T23:28:12.249Z,9.32
2023-02-11T23:30:39.524Z,9.40
2023-02-11T23:33:06.891Z,9.93
2023-02-11T23:35:34.292Z,9.60
2023-02-11T23:38:01.521Z,9.95
2023-02-11T23:40:28.752Z,10.38
2023-02-11T23:42:55.916Z,10.23
2023-02-11T23:45:23.013Z,10.52
2023-02-11T23:47:50.368Z,10.00
2023-02-11T23:50:17.866Z,10.50
2023-02-11T23:52:45.295Z,11.43
2023-02-11T23:55:12.447Z,9.95
2023-02-11T23:57:39.535Z,11.07
